AirNav   Everest Fuels
 
 849 users online  

2IL1 Mc Cartney Airport
Durand, Illinois, USA

GOING TO DURAND?


FAA INFORMATION EFFECTIVE 01 DECEMBER 2022

Location

FAA Identifier: 2IL1
Lat/Long: 42-24-50.0540N 089-19-45.4080W
42-24.834233N 089-19.756800W
42.4139039,-89.3292800
(estimated)
Elevation: 908 ft. / 276.8 m (surveyed)
Variation: 00E (1985)
From city: 2 miles S of DURAND, IL
Time zone: UTC -6 (UTC -5 during Daylight Saving Time)
Zip code: 61024

Airport Operations

Airport use: Private use. Permission required prior to landing
Activation date: 08/1972
Control tower: no
ARTCC: CHICAGO CENTER
FSS: KANKAKEE FLIGHT SERVICE STATION
Attendance: APR-NOV MON-SAT 0800-1600
Wind indicator: yes
Segmented circle: no

Airport Communications

WX AWOS-3 at FEP (15 nm SW): 120.525 (815-233-4472)
WX ASOS at RFD (17 nm SE): PHONE 815-484-6229
WX AWOS-3 at EFT (17 nm NW): 118.375 (608-328-8359)
WX AWOS-3 at JVL (18 nm NE): PHONE 608-758-1723

Nearby radio navigation aids

VOR radial/distance  VOR name  Freq  Var
JVLr226/13.2JANESVILLE VOR/DME114.3003E
PLLr015/28.3POLO VOR/DME111.2003E

Airport Services

Airframe service: NONE
Powerplant service: NONE

Runway Information

Runway N/S

Dimensions: 1700 x 60 ft. / 518 x 18 m
Surface: turf
RUNWAY N  RUNWAY S
Traffic pattern: leftleft

Airport Ownership and Management from official FAA records

Ownership: Privately-owned
Owner: DAVE MC CARTNEY
PO BOX 568
DURAND, IL 61024
Phone 815-248-2161

Airport Operational Statistics

Aircraft based on the field: 1
Single engine airplanes: 1
    

Additional Remarks

FOR CD CTC CHICAGO ARTCC AT 630-906-8921.

Instrument Procedures

There are no published instrument procedures at 2IL1.

Some nearby airports with instrument procedures:

KFEP - Albertus Airport (15 nm SW)
KRFD - Chicago/Rockford International Airport (17 nm SE)
KEFT - Monroe Municipal Airport (17 nm NW)
44C - Beloit Airport (17 nm E)
KJVL - Southern Wisconsin Regional Airport (18 nm NE)
 
Loc | Ops | Rwys | IFR | FBO | Links
Com | Nav | Svcs | Stats | Notes
Area around 2IL1 (Mc Cartney Airport)
 
Road maps at: MapQuest Bing Google
 
Aerial photo
No photo
 
Sectional chart

 
Airport distance calculator
Flying to Mc Cartney Airport? Find the distance to fly.

From to 2IL1

Sunrise and sunset
Times for 07-Dec-2022
 Local
(UTC-6)
 Zulu
(UTC)
Morning civil twilight06:4212:42
Sunrise07:1413:14
Sunset16:2422:24
Evening civil twilight16:5522:55

Current date and time
Zulu (UTC)  07-Dec-2022 13:02:50
Local (UTC-6)  07-Dec-2022 07:02:50
 
METAR
KFEP 
15nm SW 
071255Z AUTO 00000KT 7SM OVC013 01/01 A3019 RMK AO2 T00100008
KEFT 
16nm NW 
071255Z AUTO 3SM BR OVC011 M01/M02 A3016 RMK AO2 T10151016
KRFD 
16nm SE 
071254Z 00000KT 5SM BR OVC013 01/M01 A3021 RMK AO2 SLP237 T00111006
KJVL 
18nm NE 
071245Z 00000KT 1/4SM FZFG OVC001 M01/M01 A3018
TAF
KRFD 
16nm SE 
071120Z 0712/0812 VRB03KT 6SM BR OVC010 TEMPO 0712/0715 1SM BR OVC005 FM071800 31005KT P6SM BKN015 FM072100 35005KT P6SM BKN025 FM080100 01005KT P6SM SCT025 BKN100
KJVL 
18nm NE 
071125Z 0712/0812 00000KT 1/4SM FZFG OVC002 FM071500 00000KT 3SM BR OVC011 FM071800 VRB03KT P6SM OVC013 FM072100 33006KT P6SM SCT020 FM080200 02005KT P6SM BKN025 FM080800 VRB03KT 3SM BR FEW009 BKN019
NOTAMs
Click for the latest NOTAMs
NOTAMs are issued by the DoD/FAA and will open in a separate window not controlled by AirNav.

 

 
 

Would you like to see your business listed on this page?

 If your business provides an interesting product or service to pilots, flight crews, aircraft, or users of the Mc Cartney Airport, you should consider listing it here.  To start the listing process, click on the button below
 
Add a business
 

Other Pages about Mc Cartney Airport

Update a link
 
Copyright © AirNav, LLC. All rights reserved. Privacy Policy  Contact